EmailTwitter


Observations de surface / Québec / CYUL (71627)

Régions: Québec | Canada | États-Unis | Europe | France | UK | Elsewhere
Station
Affichage
Infos & localisation pour CYUL (71627) | Aide pour décoder les METARs

Observations prises le 2017-05-24 à 03H00 UTC à MONTREAL INTL A, QB (CYUL)

Etat du ciel: quelques nuages.

Température: 15.0 Celsius

Point de rosée: 10.0 Celsius

Humidité relative: 72%

Vents: Calme à 0 km/h ou 0 noeuds.

Pression au niveau moyen de la mer: 100.86 kilopascals.

Calage altimétrique: 100.85 kilopascals ou 29.78 pouces de mercure.

Visibilité horizontale: 15.00 milles terrestres ou 24.00 kilomètres.

Observation METAR:

CYUL 240300Z 00000KT 15SM FEW110 15/10 A2978 RMK AC1 AC TR SLP086 DENSITY ALT

200FT=